sensor_id;sensor_type;location;lat;lon;timestamp;temperature;humidity
8676;DHT22;4375;52.486;13.424;2023-06-04T00:00:25;14.50;59.70
8676;DHT22;4375;52.486;13.424;2023-06-04T00:02:51;14.60;60.00
8676;DHT22;4375;52.486;13.424;2023-06-04T00:05:16;14.50;60.00
8676;DHT22;4375;52.486;13.424;2023-06-04T00:07:42;14.50;60.30
8676;DHT22;4375;52.486;13.424;2023-06-04T00:10:09;14.40;61.20
8676;DHT22;4375;52.486;13.424;2023-06-04T00:12:35;14.40;61.60
8676;DHT22;4375;52.486;13.424;2023-06-04T00:15:01;14.40;61.80
8676;DHT22;4375;52.486;13.424;2023-06-04T00:17:26;14.40;62.00
8676;DHT22;4375;52.486;13.424;2023-06-04T00:19:52;14.40;62.80
8676;DHT22;4375;52.486;13.424;2023-06-04T00:22:18;14.40;63.00
8676;DHT22;4375;52.486;13.424;2023-06-04T00:24:43;14.40;63.40
8676;DHT22;4375;52.486;13.424;2023-06-04T00:27:09;14.30;64.00
8676;DHT22;4375;52.486;13.424;2023-06-04T00:29:35;14.30;64.70
8676;DHT22;4375;52.486;13.424;2023-06-04T00:32:02;14.20;65.50
8676;DHT22;4375;52.486;13.424;2023-06-04T00:34:27;14.20;66.00
8676;DHT22;4375;52.486;13.424;2023-06-04T00:36:53;14.20;66.50
8676;DHT22;4375;52.486;13.424;2023-06-04T00:39:19;14.10;66.70
8676;DHT22;4375;52.486;13.424;2023-06-04T00:41:45;14.20;67.20
8676;DHT22;4375;52.486;13.424;2023-06-04T00:44:10;14.10;67.40
8676;DHT22;4375;52.486;13.424;2023-06-04T00:46:37;14.10;67.90
8676;DHT22;4375;52.486;13.424;2023-06-04T00:49:03;14.00;68.40
8676;DHT22;4375;52.486;13.424;2023-06-04T00:51:30;14.00;68.70
8676;DHT22;4375;52.486;13.424;2023-06-04T00:53:56;14.00;69.00
8676;DHT22;4375;52.486;13.424;2023-06-04T00:56:23;13.90;69.40
8676;DHT22;4375;52.486;13.424;2023-06-04T00:58:49;13.90;69.90
8676;DHT22;4375;52.486;13.424;2023-06-04T01:04:49;13.80;70.80
8676;DHT22;4375;52.486;13.424;2023-06-04T01:07:16;13.80;71.20
8676;DHT22;4375;52.486;13.424;2023-06-04T01:09:44;13.70;71.40
8676;DHT22;4375;52.486;13.424;2023-06-04T01:12:10;13.70;71.70
8676;DHT22;4375;52.486;13.424;2023-06-04T01:14:36;13.80;71.90
8676;DHT22;4375;52.486;13.424;2023-06-04T01:22:03;13.60;73.60
8676;DHT22;4375;52.486;13.424;2023-06-04T01:24:32;13.60;74.20
8676;DHT22;4375;52.486;13.424;2023-06-04T01:27:02;13.60;73.70
8676;DHT22;4375;52.486;13.424;2023-06-04T01:29:29;13.60;73.80
8676;DHT22;4375;52.486;13.424;2023-06-04T01:31:55;13.50;74.30
8676;DHT22;4375;52.486;13.424;2023-06-04T01:34:22;13.70;74.90
8676;DHT22;4375;52.486;13.424;2023-06-04T01:36:47;13.50;75.80
8676;DHT22;4375;52.486;13.424;2023-06-04T01:39:13;13.50;75.50
8676;DHT22;4375;52.486;13.424;2023-06-04T01:41:39;13.50;75.70
8676;DHT22;4375;52.486;13.424;2023-06-04T01:44:04;13.50;76.20
8676;DHT22;4375;52.486;13.424;2023-06-04T01:46:30;13.40;76.40
8676;DHT22;4375;52.486;13.424;2023-06-04T01:48:56;13.40;77.00
8676;DHT22;4375;52.486;13.424;2023-06-04T01:51:22;13.40;77.30
8676;DHT22;4375;52.486;13.424;2023-06-04T01:53:47;13.50;77.50
8676;DHT22;4375;52.486;13.424;2023-06-04T01:56:13;13.40;77.90
8676;DHT22;4375;52.486;13.424;2023-06-04T01:58:39;13.40;78.20
8676;DHT22;4375;52.486;13.424;2023-06-04T02:01:05;13.40;79.00
8676;DHT22;4375;52.486;13.424;2023-06-04T02:03:32;13.30;79.40
8676;DHT22;4375;52.486;13.424;2023-06-04T02:06:03;13.20;80.30
8676;DHT22;4375;52.486;13.424;2023-06-04T02:08:29;13.10;80.90
8676;DHT22;4375;52.486;13.424;2023-06-04T02:10:56;13.10;81.10
8676;DHT22;4375;52.486;13.424;2023-06-04T02:13:21;13.20;81.30
8676;DHT22;4375;52.486;13.424;2023-06-04T02:15:47;13.20;81.60
8676;DHT22;4375;52.486;13.424;2023-06-04T02:18:18;13.10;81.70
8676;DHT22;4375;52.486;13.424;2023-06-04T02:20:46;13.10;82.40
8676;DHT22;4375;52.486;13.424;2023-06-04T02:23:13;13.10;82.80
8676;DHT22;4375;52.486;13.424;2023-06-04T02:25:40;13.10;82.90
8676;DHT22;4375;52.486;13.424;2023-06-04T02:28:06;13.00;83.50
8676;DHT22;4375;52.486;13.424;2023-06-04T02:30:32;13.00;83.80
8676;DHT22;4375;52.486;13.424;2023-06-04T02:32:57;13.00;84.30
8676;DHT22;4375;52.486;13.424;2023-06-04T02:35:27;13.00;84.20
8676;DHT22;4375;52.486;13.424;2023-06-04T02:37:53;13.10;84.40
8676;DHT22;4375;52.486;13.424;2023-06-04T02:40:19;13.00;85.20
8676;DHT22;4375;52.486;13.424;2023-06-04T02:42:45;13.00;85.10
8676;DHT22;4375;52.486;13.424;2023-06-04T02:45:11;13.00;84.90
8676;DHT22;4375;52.486;13.424;2023-06-04T02:47:37;13.00;85.70
8676;DHT22;4375;52.486;13.424;2023-06-04T02:50:03;12.90;86.00
8676;DHT22;4375;52.486;13.424;2023-06-04T02:52:29;13.00;86.40
8676;DHT22;4375;52.486;13.424;2023-06-04T02:54:56;13.00;86.40
8676;DHT22;4375;52.486;13.424;2023-06-04T02:57:21;12.90;86.60
8676;DHT22;4375;52.486;13.424;2023-06-04T02:59:47;12.90;86.90
8676;DHT22;4375;52.486;13.424;2023-06-04T03:02:12;12.90;87.10
8676;DHT22;4375;52.486;13.424;2023-06-04T03:04:40;12.90;87.40
8676;DHT22;4375;52.486;13.424;2023-06-04T03:07:08;12.90;88.00
8676;DHT22;4375;52.486;13.424;2023-06-04T03:09:36;12.90;88.30
8676;DHT22;4375;52.486;13.424;2023-06-04T03:12:03;12.90;88.70
8676;DHT22;4375;52.486;13.424;2023-06-04T03:14:29;12.90;89.50
8676;DHT22;4375;52.486;13.424;2023-06-04T03:17:02;12.90;90.10
8676;DHT22;4375;52.486;13.424;2023-06-04T03:19:42;12.80;89.90
8676;DHT22;4375;52.486;13.424;2023-06-04T03:22:08;12.80;90.20
8676;DHT22;4375;52.486;13.424;2023-06-04T03:24:36;12.70;90.20
8676;DHT22;4375;52.486;13.424;2023-06-04T03:27:03;12.80;90.30
8676;DHT22;4375;52.486;13.424;2023-06-04T03:29:29;12.80;90.50
8676;DHT22;4375;52.486;13.424;2023-06-04T03:31:56;12.80;90.70
8676;DHT22;4375;52.486;13.424;2023-06-04T03:34:22;12.70;90.80
8676;DHT22;4375;52.486;13.424;2023-06-04T03:36:53;12.80;91.10
8676;DHT22;4375;52.486;13.424;2023-06-04T03:39:19;12.80;90.60
8676;DHT22;4375;52.486;13.424;2023-06-04T03:41:45;12.90;90.90
8676;DHT22;4375;52.486;13.424;2023-06-04T03:44:15;12.80;90.80
8676;DHT22;4375;52.486;13.424;2023-06-04T03:46:42;12.70;90.80
8676;DHT22;4375;52.486;13.424;2023-06-04T03:49:09;12.80;90.90
8676;DHT22;4375;52.486;13.424;2023-06-04T03:51:36;12.80;90.80
8676;DHT22;4375;52.486;13.424;2023-06-04T03:54:02;12.90;90.80
8676;DHT22;4375;52.486;13.424;2023-06-04T03:56:27;12.80;90.70
8676;DHT22;4375;52.486;13.424;2023-06-04T03:58:54;12.90;91.00
8676;DHT22;4375;52.486;13.424;2023-06-04T04:01:19;12.90;91.30
8676;DHT22;4375;52.486;13.424;2023-06-04T04:03:45;13.00;91.30
8676;DHT22;4375;52.486;13.424;2023-06-04T04:06:14;13.00;91.90
8676;DHT22;4375;52.486;13.424;2023-06-04T04:08:40;13.00;91.80
8676;DHT22;4375;52.486;13.424;2023-06-04T04:11:08;13.00;91.60
8676;DHT22;4375;52.486;13.424;2023-06-04T04:13:33;13.00;91.50
8676;DHT22;4375;52.486;13.424;2023-06-04T04:15:59;13.00;91.50
8676;DHT22;4375;52.486;13.424;2023-06-04T04:18:25;13.10;91.70
8676;DHT22;4375;52.486;13.424;2023-06-04T04:20:51;13.10;91.50
8676;DHT22;4375;52.486;13.424;2023-06-04T04:23:17;13.10;91.50
8676;DHT22;4375;52.486;13.424;2023-06-04T04:25:43;13.20;91.70
8676;DHT22;4375;52.486;13.424;2023-06-04T04:28:12;13.20;91.60
8676;DHT22;4375;52.486;13.424;2023-06-04T04:30:38;13.30;92.00
8676;DHT22;4375;52.486;13.424;2023-06-04T04:33:04;13.30;91.90
8676;DHT22;4375;52.486;13.424;2023-06-04T04:35:33;13.30;92.50
8676;DHT22;4375;52.486;13.424;2023-06-04T04:38:00;13.20;91.80
8676;DHT22;4375;52.486;13.424;2023-06-04T04:40:29;13.30;91.70
8676;DHT22;4375;52.486;13.424;2023-06-04T04:42:55;13.40;91.60
8676;DHT22;4375;52.486;13.424;2023-06-04T04:45:20;13.30;92.20
8676;DHT22;4375;52.486;13.424;2023-06-04T04:47:46;13.30;92.60
8676;DHT22;4375;52.486;13.424;2023-06-04T04:50:12;13.30;93.00
8676;DHT22;4375;52.486;13.424;2023-06-04T04:52:38;13.40;92.50
8676;DHT22;4375;52.486;13.424;2023-06-04T04:55:04;13.50;92.60
8676;DHT22;4375;52.486;13.424;2023-06-04T04:57:30;13.40;93.20
8676;DHT22;4375;52.486;13.424;2023-06-04T04:59:56;13.50;93.10
8676;DHT22;4375;52.486;13.424;2023-06-04T05:02:21;13.40;93.70
8676;DHT22;4375;52.486;13.424;2023-06-04T05:04:47;13.40;93.90
8676;DHT22;4375;52.486;13.424;2023-06-04T05:07:13;13.50;94.30
8676;DHT22;4375;52.486;13.424;2023-06-04T05:09:39;13.50;94.00
8676;DHT22;4375;52.486;13.424;2023-06-04T05:12:05;13.70;94.60
8676;DHT22;4375;52.486;13.424;2023-06-04T05:14:32;13.80;94.70
8676;DHT22;4375;52.486;13.424;2023-06-04T05:17:01;13.80;95.20
8676;DHT22;4375;52.486;13.424;2023-06-04T05:19:28;13.90;94.60
8676;DHT22;4375;52.486;13.424;2023-06-04T05:21:54;14.00;94.60
8676;DHT22;4375;52.486;13.424;2023-06-04T05:24:20;14.00;94.40
8676;DHT22;4375;52.486;13.424;2023-06-04T05:26:45;14.10;94.00
8676;DHT22;4375;52.486;13.424;2023-06-04T05:29:13;14.10;93.80
8676;DHT22;4375;52.486;13.424;2023-06-04T05:31:39;14.20;93.90
8676;DHT22;4375;52.486;13.424;2023-06-04T05:34:05;14.30;93.90
8676;DHT22;4375;52.486;13.424;2023-06-04T05:36:31;14.40;93.90
8676;DHT22;4375;52.486;13.424;2023-06-04T05:38:56;14.40;93.50
8676;DHT22;4375;52.486;13.424;2023-06-04T05:41:28;14.50;93.30
8676;DHT22;4375;52.486;13.424;2023-06-04T05:43:53;14.60;93.20
8676;DHT22;4375;52.486;13.424;2023-06-04T05:46:19;14.60;92.70
8676;DHT22;4375;52.486;13.424;2023-06-04T05:48:45;14.70;93.20
8676;DHT22;4375;52.486;13.424;2023-06-04T05:51:13;14.80;92.70
8676;DHT22;4375;52.486;13.424;2023-06-04T05:53:39;14.80;92.30
8676;DHT22;4375;52.486;13.424;2023-06-04T05:56:04;14.90;91.10
8676;DHT22;4375;52.486;13.424;2023-06-04T05:58:32;14.90;90.60
8676;DHT22;4375;52.486;13.424;2023-06-04T06:00:57;14.90;90.30
8676;DHT22;4375;52.486;13.424;2023-06-04T06:03:23;15.10;88.80
8676;DHT22;4375;52.486;13.424;2023-06-04T06:05:48;15.10;89.40
8676;DHT22;4375;52.486;13.424;2023-06-04T06:08:14;15.20;90.30
8676;DHT22;4375;52.486;13.424;2023-06-04T06:10:40;15.30;88.60
8676;DHT22;4375;52.486;13.424;2023-06-04T06:13:05;15.40;87.10
8676;DHT22;4375;52.486;13.424;2023-06-04T06:15:31;15.50;86.70
8676;DHT22;4375;52.486;13.424;2023-06-04T06:17:58;15.70;89.10
8676;DHT22;4375;52.486;13.424;2023-06-04T06:20:24;15.80;86.10
8676;DHT22;4375;52.486;13.424;2023-06-04T06:22:49;15.80;83.20
8676;DHT22;4375;52.486;13.424;2023-06-04T06:25:15;15.80;81.50
8676;DHT22;4375;52.486;13.424;2023-06-04T06:27:41;15.90;80.40
8676;DHT22;4375;52.486;13.424;2023-06-04T06:30:07;15.90;78.70
8676;DHT22;4375;52.486;13.424;2023-06-04T06:32:34;16.00;78.70
8676;DHT22;4375;52.486;13.424;2023-06-04T06:35:00;16.10;79.30
8676;DHT22;4375;52.486;13.424;2023-06-04T06:37:29;16.30;75.80
8676;DHT22;4375;52.486;13.424;2023-06-04T06:39:55;16.40;74.00
8676;DHT22;4375;52.486;13.424;2023-06-04T06:42:20;16.60;74.80
8676;DHT22;4375;52.486;13.424;2023-06-04T06:44:46;16.70;74.30
8676;DHT22;4375;52.486;13.424;2023-06-04T06:47:11;16.80;74.80
8676;DHT22;4375;52.486;13.424;2023-06-04T06:49:40;16.80;73.10
8676;DHT22;4375;52.486;13.424;2023-06-04T06:52:05;16.80;74.00
8676;DHT22;4375;52.486;13.424;2023-06-04T06:54:31;16.90;74.10
8676;DHT22;4375;52.486;13.424;2023-06-04T06:56:57;17.10;74.00
8676;DHT22;4375;52.486;13.424;2023-06-04T06:59:23;17.10;74.00
8676;DHT22;4375;52.486;13.424;2023-06-04T07:01:49;17.30;74.30
8676;DHT22;4375;52.486;13.424;2023-06-04T07:04:15;17.40;71.40
8676;DHT22;4375;52.486;13.424;2023-06-04T07:06:41;17.50;68.90
8676;DHT22;4375;52.486;13.424;2023-06-04T07:09:07;17.50;67.40
8676;DHT22;4375;52.486;13.424;2023-06-04T07:11:33;17.60;67.00
8676;DHT22;4375;52.486;13.424;2023-06-04T07:13:59;18.90;66.60
8676;DHT22;4375;52.486;13.424;2023-06-04T07:16:27;21.50;65.30
8676;DHT22;4375;52.486;13.424;2023-06-04T07:18:52;23.30;57.80
8676;DHT22;4375;52.486;13.424;2023-06-04T07:21:18;23.30;56.00
8676;DHT22;4375;52.486;13.424;2023-06-04T07:23:46;23.40;55.60
8676;DHT22;4375;52.486;13.424;2023-06-04T07:26:15;22.60;55.10
8676;DHT22;4375;52.486;13.424;2023-06-04T07:28:41;22.80;54.20
8676;DHT22;4375;52.486;13.424;2023-06-04T07:31:07;24.60;55.20
8676;DHT22;4375;52.486;13.424;2023-06-04T07:33:33;25.80;52.00
8676;DHT22;4375;52.486;13.424;2023-06-04T07:35:59;24.90;52.40
8676;DHT22;4375;52.486;13.424;2023-06-04T07:38:25;26.30;50.80
8676;DHT22;4375;52.486;13.424;2023-06-04T07:40:51;28.10;48.00
8676;DHT22;4375;52.486;13.424;2023-06-04T07:43:17;29.00;46.40
8676;DHT22;4375;52.486;13.424;2023-06-04T07:45:42;29.80;45.20
8676;DHT22;4375;52.486;13.424;2023-06-04T07:48:11;29.20;43.70
8676;DHT22;4375;52.486;13.424;2023-06-04T07:50:37;27.70;45.70
8676;DHT22;4375;52.486;13.424;2023-06-04T07:53:02;27.20;46.40
8676;DHT22;4375;52.486;13.424;2023-06-04T07:55:28;26.20;45.80
8676;DHT22;4375;52.486;13.424;2023-06-04T07:57:54;24.70;45.90
8676;DHT22;4375;52.486;13.424;2023-06-04T08:00:20;24.10;46.10
8676;DHT22;4375;52.486;13.424;2023-06-04T08:02:46;23.80;47.10
8676;DHT22;4375;52.486;13.424;2023-06-04T08:05:11;24.30;47.40
8676;DHT22;4375;52.486;13.424;2023-06-04T08:07:40;25.50;47.20
8676;DHT22;4375;52.486;13.424;2023-06-04T08:10:06;27.40;45.80
8676;DHT22;4375;52.486;13.424;2023-06-04T08:12:32;28.50;43.60
8676;DHT22;4375;52.486;13.424;2023-06-04T08:14:57;27.40;42.60
8676;DHT22;4375;52.486;13.424;2023-06-04T08:17:23;26.50;43.70
8676;DHT22;4375;52.486;13.424;2023-06-04T08:19:49;24.80;43.60
8676;DHT22;4375;52.486;13.424;2023-06-04T08:22:15;26.10;44.30
8676;DHT22;4375;52.486;13.424;2023-06-04T08:24:41;26.80;43.40
8676;DHT22;4375;52.486;13.424;2023-06-04T08:27:06;26.50;44.10
8676;DHT22;4375;52.486;13.424;2023-06-04T08:29:34;26.90;44.60
8676;DHT22;4375;52.486;13.424;2023-06-04T08:32:01;28.80;43.30
8676;DHT22;4375;52.486;13.424;2023-06-04T08:34:28;30.30;42.20
8676;DHT22;4375;52.486;13.424;2023-06-04T08:36:53;31.40;41.00
8676;DHT22;4375;52.486;13.424;2023-06-04T08:39:19;31.40;40.00
8676;DHT22;4375;52.486;13.424;2023-06-04T08:41:48;31.10;39.30
8676;DHT22;4375;52.486;13.424;2023-06-04T08:44:16;31.20;38.90
8676;DHT22;4375;52.486;13.424;2023-06-04T08:46:43;31.50;39.80
8676;DHT22;4375;52.486;13.424;2023-06-04T08:49:12;31.10;40.00
8676;DHT22;4375;52.486;13.424;2023-06-04T08:51:38;31.10;38.80
8676;DHT22;4375;52.486;13.424;2023-06-04T08:54:08;31.10;39.20
8676;DHT22;4375;52.486;13.424;2023-06-04T08:56:36;30.40;38.70
8676;DHT22;4375;52.486;13.424;2023-06-04T08:59:06;28.70;39.70
8676;DHT22;4375;52.486;13.424;2023-06-04T09:01:33;28.20;39.90
8676;DHT22;4375;52.486;13.424;2023-06-04T09:04:01;29.20;39.80
8676;DHT22;4375;52.486;13.424;2023-06-04T09:06:29;29.70;39.50
8676;DHT22;4375;52.486;13.424;2023-06-04T09:08:57;30.30;38.70
8676;DHT22;4375;52.486;13.424;2023-06-04T09:11:26;30.10;38.60
8676;DHT22;4375;52.486;13.424;2023-06-04T09:13:53;30.50;39.30
8676;DHT22;4375;52.486;13.424;2023-06-04T09:16:22;30.50;38.10
8676;DHT22;4375;52.486;13.424;2023-06-04T09:18:48;30.30;38.70
8676;DHT22;4375;52.486;13.424;2023-06-04T09:21:14;29.70;38.90
8676;DHT22;4375;52.486;13.424;2023-06-04T09:26:09;30.10;38.90
8676;DHT22;4375;52.486;13.424;2023-06-04T09:28:39;28.70;39.40
8676;DHT22;4375;52.486;13.424;2023-06-04T09:31:08;29.10;39.10
8676;DHT22;4375;52.486;13.424;2023-06-04T09:36:09;28.20;40.40
8676;DHT22;4375;52.486;13.424;2023-06-04T09:38:35;28.60;39.70
8676;DHT22;4375;52.486;13.424;2023-06-04T09:41:01;29.60;39.30
8676;DHT22;4375;52.486;13.424;2023-06-04T09:43:30;29.30;38.60
8676;DHT22;4375;52.486;13.424;2023-06-04T09:46:16;28.20;38.80
8676;DHT22;4375;52.486;13.424;2023-06-04T09:48:42;26.10;40.20
8676;DHT22;4375;52.486;13.424;2023-06-04T09:51:12;25.30;40.90
8676;DHT22;4375;52.486;13.424;2023-06-04T09:53:40;25.10;41.30
8676;DHT22;4375;52.486;13.424;2023-06-04T09:56:07;24.50;42.00
8676;DHT22;4375;52.486;13.424;2023-06-04T09:58:34;23.70;42.50
8676;DHT22;4375;52.486;13.424;2023-06-04T10:01:02;23.70;42.40
8676;DHT22;4375;52.486;13.424;2023-06-04T10:03:38;24.60;42.50
8676;DHT22;4375;52.486;13.424;2023-06-04T10:06:05;24.80;41.60
8676;DHT22;4375;52.486;13.424;2023-06-04T10:08:32;24.70;42.20
8676;DHT22;4375;52.486;13.424;2023-06-04T10:11:00;26.00;42.00
8676;DHT22;4375;52.486;13.424;2023-06-04T10:13:38;26.10;40.20
8676;DHT22;4375;52.486;13.424;2023-06-04T10:16:07;26.30;41.10
8676;DHT22;4375;52.486;13.424;2023-06-04T10:18:33;25.50;41.30
8676;DHT22;4375;52.486;13.424;2023-06-04T10:20:59;23.90;41.60
8676;DHT22;4375;52.486;13.424;2023-06-04T10:23:25;23.30;42.30
8676;DHT22;4375;52.486;13.424;2023-06-04T10:25:52;23.30;42.80
8676;DHT22;4375;52.486;13.424;2023-06-04T10:28:20;22.70;43.20
8676;DHT22;4375;52.486;13.424;2023-06-04T10:30:47;23.20;43.80
8676;DHT22;4375;52.486;13.424;2023-06-04T10:33:21;23.40;43.20
8676;DHT22;4375;52.486;13.424;2023-06-04T10:35:52;23.20;43.60
8676;DHT22;4375;52.486;13.424;2023-06-04T10:38:18;23.70;43.60
8676;DHT22;4375;52.486;13.424;2023-06-04T10:40:46;23.90;43.90
8676;DHT22;4375;52.486;13.424;2023-06-04T10:43:13;24.20;43.30
8676;DHT22;4375;52.486;13.424;2023-06-04T10:45:40;24.50;43.10
8676;DHT22;4375;52.486;13.424;2023-06-04T10:48:07;24.80;42.90
8676;DHT22;4375;52.486;13.424;2023-06-04T10:50:34;25.10;42.80
8676;DHT22;4375;52.486;13.424;2023-06-04T10:53:00;25.10;42.40
8676;DHT22;4375;52.486;13.424;2023-06-04T10:55:30;25.00;42.10
8676;DHT22;4375;52.486;13.424;2023-06-04T10:57:58;23.60;42.90
8676;DHT22;4375;52.486;13.424;2023-06-04T11:00:41;23.30;43.40
8676;DHT22;4375;52.486;13.424;2023-06-04T11:03:09;23.40;43.40
8676;DHT22;4375;52.486;13.424;2023-06-04T11:05:37;23.00;43.80
8676;DHT22;4375;52.486;13.424;2023-06-04T11:08:04;23.30;43.50
8676;DHT22;4375;52.486;13.424;2023-06-04T11:10:32;23.70;43.50
8676;DHT22;4375;52.486;13.424;2023-06-04T11:12:59;23.60;43.30
8676;DHT22;4375;52.486;13.424;2023-06-04T11:15:25;23.40;43.10
8676;DHT22;4375;52.486;13.424;2023-06-04T11:17:52;23.60;43.40
8676;DHT22;4375;52.486;13.424;2023-06-04T11:20:19;23.70;43.20
8676;DHT22;4375;52.486;13.424;2023-06-04T11:25:17;23.50;43.20
8676;DHT22;4375;52.486;13.424;2023-06-04T11:27:43;23.80;43.10
8676;DHT22;4375;52.486;13.424;2023-06-04T11:30:09;23.60;43.00
8676;DHT22;4375;52.486;13.424;2023-06-04T11:32:37;24.00;43.50
8676;DHT22;4375;52.486;13.424;2023-06-04T11:35:06;23.90;43.00
8676;DHT22;4375;52.486;13.424;2023-06-04T11:37:32;24.10;43.10
8676;DHT22;4375;52.486;13.424;2023-06-04T11:39:58;23.70;42.80
8676;DHT22;4375;52.486;13.424;2023-06-04T11:42:27;23.50;42.90
8676;DHT22;4375;52.486;13.424;2023-06-04T11:44:59;23.10;43.30
8676;DHT22;4375;52.486;13.424;2023-06-04T11:47:25;22.50;43.20
8676;DHT22;4375;52.486;13.424;2023-06-04T11:49:57;22.30;43.30
8676;DHT22;4375;52.486;13.424;2023-06-04T11:52:23;22.10;43.60
8676;DHT22;4375;52.486;13.424;2023-06-04T11:54:49;21.80;43.80
8676;DHT22;4375;52.486;13.424;2023-06-04T11:57:15;21.90;43.80
8676;DHT22;4375;52.486;13.424;2023-06-04T11:59:41;21.90;44.40
8676;DHT22;4375;52.486;13.424;2023-06-04T12:02:07;22.10;43.60
8676;DHT22;4375;52.486;13.424;2023-06-04T12:04:33;22.00;43.40
8676;DHT22;4375;52.486;13.424;2023-06-04T12:07:00;22.10;43.70
8676;DHT22;4375;52.486;13.424;2023-06-04T12:09:29;22.30;43.00
8676;DHT22;4375;52.486;13.424;2023-06-04T12:12:04;22.50;43.20
8676;DHT22;4375;52.486;13.424;2023-06-04T12:14:30;22.40;43.60
8676;DHT22;4375;52.486;13.424;2023-06-04T12:16:57;22.60;43.30
8676;DHT22;4375;52.486;13.424;2023-06-04T12:19:23;22.80;43.10
8676;DHT22;4375;52.486;13.424;2023-06-04T12:21:59;23.00;43.30
8676;DHT22;4375;52.486;13.424;2023-06-04T12:24:27;22.90;43.10
8676;DHT22;4375;52.486;13.424;2023-06-04T12:27:04;22.90;43.60
8676;DHT22;4375;52.486;13.424;2023-06-04T12:29:31;22.70;43.60
8676;DHT22;4375;52.486;13.424;2023-06-04T12:32:07;22.50;44.10
8676;DHT22;4375;52.486;13.424;2023-06-04T12:34:34;22.80;44.00
8676;DHT22;4375;52.486;13.424;2023-06-04T12:37:00;22.80;44.30
8676;DHT22;4375;52.486;13.424;2023-06-04T12:39:26;22.50;43.90
8676;DHT22;4375;52.486;13.424;2023-06-04T12:41:52;22.50;43.90
8676;DHT22;4375;52.486;13.424;2023-06-04T12:44:18;22.50;43.50
8676;DHT22;4375;52.486;13.424;2023-06-04T12:46:44;22.50;43.60
8676;DHT22;4375;52.486;13.424;2023-06-04T12:49:10;22.60;43.70
8676;DHT22;4375;52.486;13.424;2023-06-04T12:51:35;22.60;43.90
8676;DHT22;4375;52.486;13.424;2023-06-04T12:54:02;22.50;43.60
8676;DHT22;4375;52.486;13.424;2023-06-04T12:56:28;22.40;43.50
8676;DHT22;4375;52.486;13.424;2023-06-04T12:58:53;22.40;43.10
8676;DHT22;4375;52.486;13.424;2023-06-04T13:01:19;22.50;43.50
8676;DHT22;4375;52.486;13.424;2023-06-04T13:03:45;22.50;43.20
8676;DHT22;4375;52.486;13.424;2023-06-04T13:06:10;22.60;43.30
8676;DHT22;4375;52.486;13.424;2023-06-04T13:08:36;22.70;43.50
8676;DHT22;4375;52.486;13.424;2023-06-04T13:11:02;22.60;43.10
8676;DHT22;4375;52.486;13.424;2023-06-04T13:13:28;22.30;43.20
8676;DHT22;4375;52.486;13.424;2023-06-04T13:15:54;22.10;43.40
8676;DHT22;4375;52.486;13.424;2023-06-04T13:18:20;22.00;43.70
8676;DHT22;4375;52.486;13.424;2023-06-04T13:20:46;22.00;43.70
8676;DHT22;4375;52.486;13.424;2023-06-04T13:23:12;22.20;44.00
8676;DHT22;4375;52.486;13.424;2023-06-04T13:25:40;22.30;44.10
8676;DHT22;4375;52.486;13.424;2023-06-04T13:28:06;22.30;43.30
8676;DHT22;4375;52.486;13.424;2023-06-04T13:30:35;22.30;43.30
8676;DHT22;4375;52.486;13.424;2023-06-04T13:33:01;22.30;44.40
8676;DHT22;4375;52.486;13.424;2023-06-04T13:35:27;22.40;43.80
8676;DHT22;4375;52.486;13.424;2023-06-04T13:37:53;22.40;43.90
8676;DHT22;4375;52.486;13.424;2023-06-04T13:40:18;22.60;43.70
8676;DHT22;4375;52.486;13.424;2023-06-04T13:42:44;22.60;43.80
8676;DHT22;4375;52.486;13.424;2023-06-04T13:45:10;22.50;43.30
8676;DHT22;4375;52.486;13.424;2023-06-04T13:47:36;22.60;43.90
8676;DHT22;4375;52.486;13.424;2023-06-04T13:50:02;22.40;44.00
8676;DHT22;4375;52.486;13.424;2023-06-04T13:52:41;22.40;43.70
8676;DHT22;4375;52.486;13.424;2023-06-04T13:55:07;22.30;43.80
8676;DHT22;4375;52.486;13.424;2023-06-04T13:57:33;22.30;43.80
8676;DHT22;4375;52.486;13.424;2023-06-04T13:59:58;22.40;43.80
8676;DHT22;4375;52.486;13.424;2023-06-04T14:02:24;22.50;43.80
8676;DHT22;4375;52.486;13.424;2023-06-04T14:04:53;22.60;43.60
8676;DHT22;4375;52.486;13.424;2023-06-04T14:07:19;22.80;43.40
8676;DHT22;4375;52.486;13.424;2023-06-04T14:09:45;22.80;43.70
8676;DHT22;4375;52.486;13.424;2023-06-04T14:12:11;22.60;43.20
8676;DHT22;4375;52.486;13.424;2023-06-04T14:14:40;22.60;43.30
8676;DHT22;4375;52.486;13.424;2023-06-04T14:17:06;22.60;43.20
8676;DHT22;4375;52.486;13.424;2023-06-04T14:19:35;22.50;43.30
8676;DHT22;4375;52.486;13.424;2023-06-04T14:22:04;22.50;43.50
8676;DHT22;4375;52.486;13.424;2023-06-04T14:24:30;22.50;43.50
8676;DHT22;4375;52.486;13.424;2023-06-04T14:26:56;22.40;43.90
8676;DHT22;4375;52.486;13.424;2023-06-04T14:29:21;22.60;43.80
8676;DHT22;4375;52.486;13.424;2023-06-04T14:31:47;22.60;43.70
8676;DHT22;4375;52.486;13.424;2023-06-04T14:34:13;22.70;44.00
8676;DHT22;4375;52.486;13.424;2023-06-04T14:36:39;22.60;43.90
8676;DHT22;4375;52.486;13.424;2023-06-04T14:39:04;22.60;43.80
8676;DHT22;4375;52.486;13.424;2023-06-04T14:41:30;22.80;44.20
8676;DHT22;4375;52.486;13.424;2023-06-04T14:43:56;22.90;44.10
8676;DHT22;4375;52.486;13.424;2023-06-04T14:46:22;22.90;44.00
8676;DHT22;4375;52.486;13.424;2023-06-04T14:48:47;23.00;43.60
8676;DHT22;4375;52.486;13.424;2023-06-04T14:51:13;23.00;43.90
8676;DHT22;4375;52.486;13.424;2023-06-04T14:53:38;23.10;43.70
8676;DHT22;4375;52.486;13.424;2023-06-04T14:56:05;22.80;43.50
8676;DHT22;4375;52.486;13.424;2023-06-04T14:58:31;22.70;43.90
8676;DHT22;4375;52.486;13.424;2023-06-04T15:00:58;22.70;44.10
8676;DHT22;4375;52.486;13.424;2023-06-04T15:03:24;22.90;44.00
8676;DHT22;4375;52.486;13.424;2023-06-04T15:05:51;23.00;43.90
8676;DHT22;4375;52.486;13.424;2023-06-04T15:08:16;23.10;44.00
8676;DHT22;4375;52.486;13.424;2023-06-04T15:10:42;23.20;43.60
8676;DHT22;4375;52.486;13.424;2023-06-04T15:13:08;23.00;43.80
8676;DHT22;4375;52.486;13.424;2023-06-04T15:15:33;23.10;43.40
8676;DHT22;4375;52.486;13.424;2023-06-04T15:17:59;23.10;43.70
8676;DHT22;4375;52.486;13.424;2023-06-04T15:20:25;23.10;43.70
8676;DHT22;4375;52.486;13.424;2023-06-04T15:22:53;23.00;44.00
8676;DHT22;4375;52.486;13.424;2023-06-04T15:25:19;23.00;44.10
8676;DHT22;4375;52.486;13.424;2023-06-04T15:27:44;22.90;43.80
8676;DHT22;4375;52.486;13.424;2023-06-04T15:30:10;22.70;44.10
8676;DHT22;4375;52.486;13.424;2023-06-04T15:32:36;22.50;43.90
8676;DHT22;4375;52.486;13.424;2023-06-04T15:35:03;22.50;44.20
8676;DHT22;4375;52.486;13.424;2023-06-04T15:37:29;22.40;44.30
8676;DHT22;4375;52.486;13.424;2023-06-04T15:39:54;22.40;44.20
8676;DHT22;4375;52.486;13.424;2023-06-04T15:42:23;22.30;44.10
8676;DHT22;4375;52.486;13.424;2023-06-04T15:44:49;22.30;44.40
8676;DHT22;4375;52.486;13.424;2023-06-04T15:47:14;22.40;44.40
8676;DHT22;4375;52.486;13.424;2023-06-04T15:49:40;22.60;44.40
8676;DHT22;4375;52.486;13.424;2023-06-04T15:52:06;22.60;44.30
8676;DHT22;4375;52.486;13.424;2023-06-04T15:54:32;22.70;44.00
8676;DHT22;4375;52.486;13.424;2023-06-04T15:56:58;22.60;44.00